sensor_id;sensor_type;location;lat;lon;timestamp;P1;durP1;ratioP1;P2;durP2;ratioP2
22543;SDS011;11438;52.044;8.716;2024-02-23T00:00:37;3.60;;;0.50;;
22543;SDS011;11438;52.044;8.716;2024-02-23T00:03:03;2.15;;;0.52;;
22543;SDS011;11438;52.044;8.716;2024-02-23T00:05:28;1.48;;;0.60;;
22543;SDS011;11438;52.044;8.716;2024-02-23T00:07:54;3.03;;;0.55;;
22543;SDS011;11438;52.044;8.716;2024-02-23T00:10:19;2.47;;;0.63;;
22543;SDS011;11438;52.044;8.716;2024-02-23T00:12:45;1.73;;;0.38;;
22543;SDS011;11438;52.044;8.716;2024-02-23T00:15:12;0.77;;;0.32;;
22543;SDS011;11438;52.044;8.716;2024-02-23T00:17:38;1.95;;;0.47;;
22543;SDS011;11438;52.044;8.716;2024-02-23T00:20:04;2.05;;;0.70;;
22543;SDS011;11438;52.044;8.716;2024-02-23T00:22:32;2.95;;;0.50;;
22543;SDS011;11438;52.044;8.716;2024-02-23T00:24:58;1.65;;;0.40;;
22543;SDS011;11438;52.044;8.716;2024-02-23T00:27:24;2.60;;;0.60;;
22543;SDS011;11438;52.044;8.716;2024-02-23T00:29:49;2.28;;;0.32;;
22543;SDS011;11438;52.044;8.716;2024-02-23T00:32:15;1.10;;;0.30;;
22543;SDS011;11438;52.044;8.716;2024-02-23T00:34:40;3.95;;;0.57;;
22543;SDS011;11438;52.044;8.716;2024-02-23T00:37:06;0.65;;;0.30;;
22543;SDS011;11438;52.044;8.716;2024-02-23T00:39:33;1.40;;;0.40;;
22543;SDS011;11438;52.044;8.716;2024-02-23T00:41:58;2.33;;;0.40;;
22543;SDS011;11438;52.044;8.716;2024-02-23T00:44:23;0.60;;;0.30;;
22543;SDS011;11438;52.044;8.716;2024-02-23T00:46:49;0.60;;;0.40;;
22543;SDS011;11438;52.044;8.716;2024-02-23T00:49:14;0.43;;;0.30;;
22543;SDS011;11438;52.044;8.716;2024-02-23T00:51:40;1.40;;;0.30;;
22543;SDS011;11438;52.044;8.716;2024-02-23T00:54:05;0.63;;;0.30;;
22543;SDS011;11438;52.044;8.716;2024-02-23T00:56:32;0.40;;;0.20;;
22543;SDS011;11438;52.044;8.716;2024-02-23T00:58:58;0.57;;;0.22;;
22543;SDS011;11438;52.044;8.716;2024-02-23T01:01:24;0.45;;;0.22;;
22543;SDS011;11438;52.044;8.716;2024-02-23T01:03:51;0.20;;;0.20;;
22543;SDS011;11438;52.044;8.716;2024-02-23T01:06:16;0.50;;;0.13;;
22543;SDS011;11438;52.044;8.716;2024-02-23T01:08:42;0.30;;;0.17;;
22543;SDS011;11438;52.044;8.716;2024-02-23T01:11:08;1.13;;;0.28;;
22543;SDS011;11438;52.044;8.716;2024-02-23T01:13:34;0.70;;;0.15;;
22543;SDS011;11438;52.044;8.716;2024-02-23T01:15:59;0.35;;;0.20;;
22543;SDS011;11438;52.044;8.716;2024-02-23T01:18:25;0.52;;;0.20;;
22543;SDS011;11438;52.044;8.716;2024-02-23T01:20:51;0.25;;;0.20;;
22543;SDS011;11438;52.044;8.716;2024-02-23T01:23:16;0.20;;;0.20;;
22543;SDS011;11438;52.044;8.716;2024-02-23T01:25:41;0.20;;;0.20;;
22543;SDS011;11438;52.044;8.716;2024-02-23T01:28:07;0.32;;;0.20;;
22543;SDS011;11438;52.044;8.716;2024-02-23T01:30:32;0.20;;;0.20;;
22543;SDS011;11438;52.044;8.716;2024-02-23T01:32:58;0.10;;;0.10;;
22543;SDS011;11438;52.044;8.716;2024-02-23T01:35:23;0.13;;;0.13;;
22543;SDS011;11438;52.044;8.716;2024-02-23T01:37:49;0.30;;;0.20;;
22543;SDS011;11438;52.044;8.716;2024-02-23T01:40:14;0.20;;;0.20;;
22543;SDS011;11438;52.044;8.716;2024-02-23T01:42:40;0.30;;;0.30;;
22543;SDS011;11438;52.044;8.716;2024-02-23T01:45:05;1.00;;;0.28;;
22543;SDS011;11438;52.044;8.716;2024-02-23T01:47:32;0.35;;;0.30;;
22543;SDS011;11438;52.044;8.716;2024-02-23T01:49:58;1.05;;;0.20;;
22543;SDS011;11438;52.044;8.716;2024-02-23T01:52:24;0.40;;;0.30;;
22543;SDS011;11438;52.044;8.716;2024-02-23T01:54:50;0.68;;;0.30;;
22543;SDS011;11438;52.044;8.716;2024-02-23T01:57:16;2.25;;;0.25;;
22543;SDS011;11438;52.044;8.716;2024-02-23T01:59:42;0.65;;;0.35;;
22543;SDS011;11438;52.044;8.716;2024-02-23T02:02:08;0.90;;;0.40;;
22543;SDS011;11438;52.044;8.716;2024-02-23T02:04:34;0.70;;;0.30;;
22543;SDS011;11438;52.044;8.716;2024-02-23T02:06:59;1.35;;;0.50;;
22543;SDS011;11438;52.044;8.716;2024-02-23T02:09:26;0.40;;;0.40;;
22543;SDS011;11438;52.044;8.716;2024-02-23T02:11:51;1.38;;;0.40;;
22543;SDS011;11438;52.044;8.716;2024-02-23T02:14:17;0.52;;;0.40;;
22543;SDS011;11438;52.044;8.716;2024-02-23T02:16:43;1.20;;;0.40;;
22543;SDS011;11438;52.044;8.716;2024-02-23T02:19:09;1.02;;;0.40;;
22543;SDS011;11438;52.044;8.716;2024-02-23T02:21:35;0.93;;;0.40;;
22543;SDS011;11438;52.044;8.716;2024-02-23T02:24:02;0.60;;;0.50;;
22543;SDS011;11438;52.044;8.716;2024-02-23T02:26:28;0.30;;;0.30;;
22543;SDS011;11438;52.044;8.716;2024-02-23T02:28:53;0.50;;;0.30;;
22543;SDS011;11438;52.044;8.716;2024-02-23T02:31:19;0.88;;;0.30;;
22543;SDS011;11438;52.044;8.716;2024-02-23T02:33:44;1.58;;;0.50;;
22543;SDS011;11438;52.044;8.716;2024-02-23T02:36:10;1.03;;;0.50;;
22543;SDS011;11438;52.044;8.716;2024-02-23T02:38:36;0.82;;;0.60;;
22543;SDS011;11438;52.044;8.716;2024-02-23T02:41:02;0.82;;;0.77;;
22543;SDS011;11438;52.044;8.716;2024-02-23T02:43:27;2.03;;;1.05;;
22543;SDS011;11438;52.044;8.716;2024-02-23T02:45:53;1.50;;;0.77;;
22543;SDS011;11438;52.044;8.716;2024-02-23T02:48:18;1.83;;;0.90;;
22543;SDS011;11438;52.044;8.716;2024-02-23T02:50:44;2.58;;;1.00;;
22543;SDS011;11438;52.044;8.716;2024-02-23T02:53:10;2.17;;;0.90;;
22543;SDS011;11438;52.044;8.716;2024-02-23T02:55:44;1.30;;;1.00;;
22543;SDS011;11438;52.044;8.716;2024-02-23T02:58:11;2.50;;;1.02;;
22543;SDS011;11438;52.044;8.716;2024-02-23T03:00:37;1.75;;;0.95;;
22543;SDS011;11438;52.044;8.716;2024-02-23T03:03:03;1.92;;;1.00;;
22543;SDS011;11438;52.044;8.716;2024-02-23T03:05:28;2.67;;;1.20;;
22543;SDS011;11438;52.044;8.716;2024-02-23T03:07:54;2.83;;;1.10;;
22543;SDS011;11438;52.044;8.716;2024-02-23T03:10:20;3.13;;;1.00;;
22543;SDS011;11438;52.044;8.716;2024-02-23T03:12:45;2.80;;;1.37;;
22543;SDS011;11438;52.044;8.716;2024-02-23T03:15:11;3.03;;;1.30;;
22543;SDS011;11438;52.044;8.716;2024-02-23T03:17:37;3.08;;;1.10;;
22543;SDS011;11438;52.044;8.716;2024-02-23T03:20:03;3.27;;;1.30;;
22543;SDS011;11438;52.044;8.716;2024-02-23T03:22:34;2.33;;;1.30;;
22543;SDS011;11438;52.044;8.716;2024-02-23T03:25:00;2.47;;;1.27;;
22543;SDS011;11438;52.044;8.716;2024-02-23T03:27:32;2.10;;;1.30;;
22543;SDS011;11438;52.044;8.716;2024-02-23T03:29:58;4.33;;;1.20;;
22543;SDS011;11438;52.044;8.716;2024-02-23T03:32:24;2.92;;;1.27;;
22543;SDS011;11438;52.044;8.716;2024-02-23T03:34:49;2.05;;;1.10;;
22543;SDS011;11438;52.044;8.716;2024-02-23T03:37:15;2.15;;;0.98;;
22543;SDS011;11438;52.044;8.716;2024-02-23T03:39:40;3.87;;;1.20;;
22543;SDS011;11438;52.044;8.716;2024-02-23T03:42:06;2.70;;;1.07;;
22543;SDS011;11438;52.044;8.716;2024-02-23T03:44:31;2.30;;;0.98;;
22543;SDS011;11438;52.044;8.716;2024-02-23T03:46:57;1.52;;;0.80;;
22543;SDS011;11438;52.044;8.716;2024-02-23T03:49:22;1.63;;;0.80;;
22543;SDS011;11438;52.044;8.716;2024-02-23T03:51:48;2.60;;;0.77;;
22543;SDS011;11438;52.044;8.716;2024-02-23T03:54:13;1.83;;;0.70;;
22543;SDS011;11438;52.044;8.716;2024-02-23T03:56:39;2.92;;;0.77;;
22543;SDS011;11438;52.044;8.716;2024-02-23T03:59:06;1.10;;;0.50;;
22543;SDS011;11438;52.044;8.716;2024-02-23T04:01:34;1.87;;;0.60;;
22543;SDS011;11438;52.044;8.716;2024-02-23T04:04:04;1.77;;;0.50;;
22543;SDS011;11438;52.044;8.716;2024-02-23T04:06:30;3.47;;;1.00;;
22543;SDS011;11438;52.044;8.716;2024-02-23T04:08:55;2.20;;;0.60;;
22543;SDS011;11438;52.044;8.716;2024-02-23T04:11:21;1.17;;;0.50;;
22543;SDS011;11438;52.044;8.716;2024-02-23T04:13:47;1.95;;;0.52;;
22543;SDS011;11438;52.044;8.716;2024-02-23T04:16:12;1.63;;;0.60;;
22543;SDS011;11438;52.044;8.716;2024-02-23T04:18:38;2.25;;;0.70;;
22543;SDS011;11438;52.044;8.716;2024-02-23T04:21:03;3.92;;;0.70;;
22543;SDS011;11438;52.044;8.716;2024-02-23T04:23:30;2.37;;;0.67;;
22543;SDS011;11438;52.044;8.716;2024-02-23T04:25:55;2.43;;;0.70;;
22543;SDS011;11438;52.044;8.716;2024-02-23T04:28:21;4.95;;;0.80;;
22543;SDS011;11438;52.044;8.716;2024-02-23T04:30:46;2.67;;;0.55;;
22543;SDS011;11438;52.044;8.716;2024-02-23T04:33:12;3.07;;;0.60;;
22543;SDS011;11438;52.044;8.716;2024-02-23T04:35:38;2.53;;;0.70;;
22543;SDS011;11438;52.044;8.716;2024-02-23T04:38:03;1.60;;;0.40;;
22543;SDS011;11438;52.044;8.716;2024-02-23T04:40:29;3.75;;;1.00;;
22543;SDS011;11438;52.044;8.716;2024-02-23T04:42:54;2.38;;;0.57;;
22543;SDS011;11438;52.044;8.716;2024-02-23T04:45:20;1.10;;;0.52;;
22543;SDS011;11438;52.044;8.716;2024-02-23T04:47:45;2.33;;;0.50;;
22543;SDS011;11438;52.044;8.716;2024-02-23T04:50:13;2.60;;;0.68;;
22543;SDS011;11438;52.044;8.716;2024-02-23T04:52:39;2.13;;;0.63;;
22543;SDS011;11438;52.044;8.716;2024-02-23T04:55:04;2.33;;;0.70;;
22543;SDS011;11438;52.044;8.716;2024-02-23T04:57:31;2.40;;;0.77;;
22543;SDS011;11438;52.044;8.716;2024-02-23T04:59:57;3.17;;;0.55;;
22543;SDS011;11438;52.044;8.716;2024-02-23T05:02:22;1.63;;;0.55;;
22543;SDS011;11438;52.044;8.716;2024-02-23T05:04:47;4.60;;;0.75;;
22543;SDS011;11438;52.044;8.716;2024-02-23T05:07:13;3.47;;;0.60;;
22543;SDS011;11438;52.044;8.716;2024-02-23T05:09:38;1.83;;;0.55;;
22543;SDS011;11438;52.044;8.716;2024-02-23T05:12:05;2.53;;;0.50;;
22543;SDS011;11438;52.044;8.716;2024-02-23T05:14:34;3.23;;;0.67;;
22543;SDS011;11438;52.044;8.716;2024-02-23T05:16:59;1.80;;;0.50;;
22543;SDS011;11438;52.044;8.716;2024-02-23T05:19:25;3.75;;;0.95;;
22543;SDS011;11438;52.044;8.716;2024-02-23T05:21:51;0.85;;;0.40;;
22543;SDS011;11438;52.044;8.716;2024-02-23T05:24:16;2.85;;;0.70;;
22543;SDS011;11438;52.044;8.716;2024-02-23T05:26:42;1.58;;;0.50;;
22543;SDS011;11438;52.044;8.716;2024-02-23T05:29:09;4.80;;;0.70;;
22543;SDS011;11438;52.044;8.716;2024-02-23T05:31:48;2.65;;;0.50;;
22543;SDS011;11438;52.044;8.716;2024-02-23T05:34:15;3.00;;;0.80;;
22543;SDS011;11438;52.044;8.716;2024-02-23T05:36:40;3.10;;;0.73;;
22543;SDS011;11438;52.044;8.716;2024-02-23T05:39:07;3.40;;;0.95;;
22543;SDS011;11438;52.044;8.716;2024-02-23T05:41:34;2.70;;;0.80;;
22543;SDS011;11438;52.044;8.716;2024-02-23T05:44:01;2.40;;;0.60;;
22543;SDS011;11438;52.044;8.716;2024-02-23T05:46:29;1.47;;;0.73;;
22543;SDS011;11438;52.044;8.716;2024-02-23T05:48:54;3.05;;;0.90;;
22543;SDS011;11438;52.044;8.716;2024-02-23T05:51:19;6.70;;;1.05;;
22543;SDS011;11438;52.044;8.716;2024-02-23T05:53:45;1.77;;;0.67;;
22543;SDS011;11438;52.044;8.716;2024-02-23T05:56:10;4.17;;;1.10;;
22543;SDS011;11438;52.044;8.716;2024-02-23T05:58:36;4.10;;;0.80;;
22543;SDS011;11438;52.044;8.716;2024-02-23T06:01:03;2.40;;;0.83;;
22543;SDS011;11438;52.044;8.716;2024-02-23T06:03:29;2.00;;;0.70;;
22543;SDS011;11438;52.044;8.716;2024-02-23T06:05:54;1.60;;;0.47;;
22543;SDS011;11438;52.044;8.716;2024-02-23T06:08:20;2.58;;;0.75;;
22543;SDS011;11438;52.044;8.716;2024-02-23T06:10:45;2.10;;;0.80;;
22543;SDS011;11438;52.044;8.716;2024-02-23T06:13:11;3.47;;;0.80;;
22543;SDS011;11438;52.044;8.716;2024-02-23T06:15:36;3.85;;;0.80;;
22543;SDS011;11438;52.044;8.716;2024-02-23T06:18:02;1.52;;;0.80;;
22543;SDS011;11438;52.044;8.716;2024-02-23T06:20:27;1.65;;;0.60;;
22543;SDS011;11438;52.044;8.716;2024-02-23T06:22:53;3.93;;;0.70;;
22543;SDS011;11438;52.044;8.716;2024-02-23T06:25:18;2.10;;;0.70;;
22543;SDS011;11438;52.044;8.716;2024-02-23T06:27:44;1.48;;;0.63;;
22543;SDS011;11438;52.044;8.716;2024-02-23T06:30:09;2.43;;;0.70;;
22543;SDS011;11438;52.044;8.716;2024-02-23T06:32:36;3.20;;;0.80;;
22543;SDS011;11438;52.044;8.716;2024-02-23T06:35:01;2.90;;;0.90;;
22543;SDS011;11438;52.044;8.716;2024-02-23T06:37:28;2.08;;;0.60;;
22543;SDS011;11438;52.044;8.716;2024-02-23T06:39:53;3.30;;;0.80;;
22543;SDS011;11438;52.044;8.716;2024-02-23T06:42:22;2.23;;;0.80;;
22543;SDS011;11438;52.044;8.716;2024-02-23T06:44:48;2.58;;;0.60;;
22543;SDS011;11438;52.044;8.716;2024-02-23T06:47:14;3.65;;;0.68;;
22543;SDS011;11438;52.044;8.716;2024-02-23T06:49:42;2.90;;;0.65;;
22543;SDS011;11438;52.044;8.716;2024-02-23T06:52:09;3.70;;;0.50;;
22543;SDS011;11438;52.044;8.716;2024-02-23T06:54:35;1.40;;;0.60;;
22543;SDS011;11438;52.044;8.716;2024-02-23T06:57:00;2.33;;;0.65;;
22543;SDS011;11438;52.044;8.716;2024-02-23T06:59:26;2.95;;;0.65;;
22543;SDS011;11438;52.044;8.716;2024-02-23T07:01:52;2.00;;;0.50;;
22543;SDS011;11438;52.044;8.716;2024-02-23T07:04:17;2.88;;;0.60;;
22543;SDS011;11438;52.044;8.716;2024-02-23T07:06:43;2.25;;;0.60;;
22543;SDS011;11438;52.044;8.716;2024-02-23T07:09:09;0.85;;;0.50;;
22543;SDS011;11438;52.044;8.716;2024-02-23T07:11:36;2.22;;;0.50;;
22543;SDS011;11438;52.044;8.716;2024-02-23T07:14:02;4.33;;;0.60;;
22543;SDS011;11438;52.044;8.716;2024-02-23T07:16:27;2.78;;;0.70;;
22543;SDS011;11438;52.044;8.716;2024-02-23T07:18:53;2.92;;;0.70;;
22543;SDS011;11438;52.044;8.716;2024-02-23T07:21:20;3.17;;;0.67;;
22543;SDS011;11438;52.044;8.716;2024-02-23T07:23:45;2.03;;;0.70;;
22543;SDS011;11438;52.044;8.716;2024-02-23T07:26:11;2.63;;;0.50;;
22543;SDS011;11438;52.044;8.716;2024-02-23T07:28:36;2.90;;;0.50;;
22543;SDS011;11438;52.044;8.716;2024-02-23T07:31:02;2.20;;;0.55;;
22543;SDS011;11438;52.044;8.716;2024-02-23T07:33:27;1.00;;;0.40;;
22543;SDS011;11438;52.044;8.716;2024-02-23T07:35:53;1.90;;;0.60;;
22543;SDS011;11438;52.044;8.716;2024-02-23T07:38:19;0.93;;;0.50;;
22543;SDS011;11438;52.044;8.716;2024-02-23T07:40:44;2.20;;;0.50;;
22543;SDS011;11438;52.044;8.716;2024-02-23T07:43:10;2.10;;;0.40;;
22543;SDS011;11438;52.044;8.716;2024-02-23T07:45:36;2.28;;;0.50;;
22543;SDS011;11438;52.044;8.716;2024-02-23T07:48:02;1.80;;;0.38;;
22543;SDS011;11438;52.044;8.716;2024-02-23T07:50:28;2.17;;;0.55;;
22543;SDS011;11438;52.044;8.716;2024-02-23T07:52:54;2.40;;;0.60;;
22543;SDS011;11438;52.044;8.716;2024-02-23T07:55:19;1.57;;;0.40;;
22543;SDS011;11438;52.044;8.716;2024-02-23T07:57:45;3.37;;;0.50;;
22543;SDS011;11438;52.044;8.716;2024-02-23T08:00:11;1.70;;;0.65;;
22543;SDS011;11438;52.044;8.716;2024-02-23T08:02:37;2.33;;;0.35;;
22543;SDS011;11438;52.044;8.716;2024-02-23T08:05:03;3.63;;;0.80;;
22543;SDS011;11438;52.044;8.716;2024-02-23T08:07:29;1.93;;;0.40;;
22543;SDS011;11438;52.044;8.716;2024-02-23T08:09:55;2.05;;;0.60;;
22543;SDS011;11438;52.044;8.716;2024-02-23T08:12:21;4.22;;;1.00;;
22543;SDS011;11438;52.044;8.716;2024-02-23T08:14:47;3.30;;;0.33;;
22543;SDS011;11438;52.044;8.716;2024-02-23T08:17:14;1.08;;;0.45;;
22543;SDS011;11438;52.044;8.716;2024-02-23T08:19:40;1.00;;;0.40;;
22543;SDS011;11438;52.044;8.716;2024-02-23T08:22:05;1.42;;;0.50;;
22543;SDS011;11438;52.044;8.716;2024-02-23T08:24:30;4.78;;;0.43;;
22543;SDS011;11438;52.044;8.716;2024-02-23T08:26:56;1.98;;;0.50;;
22543;SDS011;11438;52.044;8.716;2024-02-23T08:29:22;3.15;;;0.50;;
22543;SDS011;11438;52.044;8.716;2024-02-23T08:31:47;1.40;;;0.50;;
22543;SDS011;11438;52.044;8.716;2024-02-23T08:34:13;1.70;;;0.50;;
22543;SDS011;11438;52.044;8.716;2024-02-23T08:36:39;2.25;;;0.68;;
22543;SDS011;11438;52.044;8.716;2024-02-23T08:39:05;2.67;;;0.47;;
22543;SDS011;11438;52.044;8.716;2024-02-23T08:41:30;2.22;;;0.40;;
22543;SDS011;11438;52.044;8.716;2024-02-23T08:43:56;2.53;;;0.50;;
22543;SDS011;11438;52.044;8.716;2024-02-23T08:46:21;2.30;;;0.43;;
22543;SDS011;11438;52.044;8.716;2024-02-23T08:48:47;2.20;;;0.40;;
22543;SDS011;11438;52.044;8.716;2024-02-23T08:51:13;1.80;;;0.60;;
22543;SDS011;11438;52.044;8.716;2024-02-23T08:53:38;1.98;;;0.50;;
22543;SDS011;11438;52.044;8.716;2024-02-23T08:56:06;2.15;;;0.30;;
22543;SDS011;11438;52.044;8.716;2024-02-23T08:58:32;1.33;;;0.35;;
22543;SDS011;11438;52.044;8.716;2024-02-23T09:00:58;2.63;;;0.50;;
22543;SDS011;11438;52.044;8.716;2024-02-23T09:03:23;1.92;;;0.40;;
22543;SDS011;11438;52.044;8.716;2024-02-23T09:05:49;1.83;;;0.50;;
22543;SDS011;11438;52.044;8.716;2024-02-23T09:08:15;5.07;;;0.50;;
22543;SDS011;11438;52.044;8.716;2024-02-23T09:10:40;2.33;;;0.68;;
22543;SDS011;11438;52.044;8.716;2024-02-23T09:13:06;4.68;;;0.63;;
22543;SDS011;11438;52.044;8.716;2024-02-23T09:15:31;2.85;;;0.40;;
22543;SDS011;11438;52.044;8.716;2024-02-23T09:17:57;2.95;;;0.65;;
22543;SDS011;11438;52.044;8.716;2024-02-23T09:20:22;2.13;;;0.40;;
22543;SDS011;11438;52.044;8.716;2024-02-23T09:22:48;2.15;;;0.50;;
22543;SDS011;11438;52.044;8.716;2024-02-23T09:25:14;2.25;;;0.50;;
22543;SDS011;11438;52.044;8.716;2024-02-23T09:27:39;1.90;;;0.47;;
22543;SDS011;11438;52.044;8.716;2024-02-23T09:30:09;3.13;;;0.70;;
22543;SDS011;11438;52.044;8.716;2024-02-23T09:32:36;1.65;;;0.40;;
22543;SDS011;11438;52.044;8.716;2024-02-23T09:35:02;2.00;;;0.50;;
22543;SDS011;11438;52.044;8.716;2024-02-23T09:37:28;1.70;;;0.40;;
22543;SDS011;11438;52.044;8.716;2024-02-23T09:39:54;1.88;;;0.50;;
22543;SDS011;11438;52.044;8.716;2024-02-23T09:42:19;2.70;;;0.60;;
22543;SDS011;11438;52.044;8.716;2024-02-23T09:44:50;2.10;;;0.45;;
22543;SDS011;11438;52.044;8.716;2024-02-23T09:47:24;1.48;;;0.30;;
22543;SDS011;11438;52.044;8.716;2024-02-23T09:49:54;1.27;;;0.60;;
22543;SDS011;11438;52.044;8.716;2024-02-23T09:52:20;1.00;;;0.40;;
22543;SDS011;11438;52.044;8.716;2024-02-23T09:54:47;0.73;;;0.30;;
22543;SDS011;11438;52.044;8.716;2024-02-23T09:57:13;4.00;;;0.88;;
22543;SDS011;11438;52.044;8.716;2024-02-23T09:59:40;2.42;;;0.50;;
22543;SDS011;11438;52.044;8.716;2024-02-23T10:02:07;3.22;;;0.65;;
22543;SDS011;11438;52.044;8.716;2024-02-23T10:04:36;2.50;;;0.50;;
22543;SDS011;11438;52.044;8.716;2024-02-23T10:07:04;2.35;;;0.40;;
22543;SDS011;11438;52.044;8.716;2024-02-23T10:09:30;3.97;;;0.65;;
22543;SDS011;11438;52.044;8.716;2024-02-23T10:11:56;1.80;;;0.47;;
22543;SDS011;11438;52.044;8.716;2024-02-23T10:14:22;1.58;;;0.50;;
22543;SDS011;11438;52.044;8.716;2024-02-23T10:16:47;3.15;;;0.50;;
22543;SDS011;11438;52.044;8.716;2024-02-23T10:19:18;3.25;;;0.60;;
22543;SDS011;11438;52.044;8.716;2024-02-23T10:21:44;0.85;;;0.32;;
22543;SDS011;11438;52.044;8.716;2024-02-23T10:24:10;1.42;;;0.47;;
22543;SDS011;11438;52.044;8.716;2024-02-23T10:26:36;1.65;;;0.50;;
22543;SDS011;11438;52.044;8.716;2024-02-23T10:29:01;1.00;;;0.30;;
22543;SDS011;11438;52.044;8.716;2024-02-23T10:31:28;1.98;;;0.50;;
22543;SDS011;11438;52.044;8.716;2024-02-23T10:33:58;1.10;;;0.45;;
22543;SDS011;11438;52.044;8.716;2024-02-23T10:36:24;1.10;;;0.40;;
22543;SDS011;11438;52.044;8.716;2024-02-23T10:38:55;4.15;;;0.50;;
22543;SDS011;11438;52.044;8.716;2024-02-23T10:41:26;1.58;;;0.57;;
22543;SDS011;11438;52.044;8.716;2024-02-23T10:43:52;2.08;;;0.50;;
22543;SDS011;11438;52.044;8.716;2024-02-23T10:46:20;1.63;;;0.50;;
22543;SDS011;11438;52.044;8.716;2024-02-23T10:48:46;2.53;;;0.47;;
22543;SDS011;11438;52.044;8.716;2024-02-23T10:51:14;4.05;;;0.43;;
22543;SDS011;11438;52.044;8.716;2024-02-23T10:53:40;1.48;;;0.50;;
22543;SDS011;11438;52.044;8.716;2024-02-23T10:56:06;1.52;;;0.50;;
22543;SDS011;11438;52.044;8.716;2024-02-23T10:58:32;4.05;;;0.90;;
22543;SDS011;11438;52.044;8.716;2024-02-23T11:00:59;2.10;;;0.50;;
22543;SDS011;11438;52.044;8.716;2024-02-23T11:03:27;3.42;;;0.70;;
22543;SDS011;11438;52.044;8.716;2024-02-23T11:05:57;3.20;;;0.70;;
22543;SDS011;11438;52.044;8.716;2024-02-23T11:08:27;3.50;;;0.90;;
22543;SDS011;11438;52.044;8.716;2024-02-23T11:10:53;3.75;;;0.90;;
22543;SDS011;11438;52.044;8.716;2024-02-23T11:13:29;4.28;;;1.40;;
22543;SDS011;11438;52.044;8.716;2024-02-23T11:16:07;4.68;;;1.05;;
22543;SDS011;11438;52.044;8.716;2024-02-23T11:18:36;3.63;;;1.10;;
22543;SDS011;11438;52.044;8.716;2024-02-23T11:21:04;3.08;;;1.40;;
22543;SDS011;11438;52.044;8.716;2024-02-23T11:23:40;2.80;;;1.27;;
22543;SDS011;11438;52.044;8.716;2024-02-23T11:26:09;2.78;;;1.20;;
22543;SDS011;11438;52.044;8.716;2024-02-23T11:28:48;4.45;;;1.48;;
22543;SDS011;11438;52.044;8.716;2024-02-23T11:31:19;3.67;;;1.20;;
22543;SDS011;11438;52.044;8.716;2024-02-23T11:33:48;4.40;;;1.30;;
22543;SDS011;11438;52.044;8.716;2024-02-23T11:36:21;4.03;;;1.20;;
22543;SDS011;11438;52.044;8.716;2024-02-23T11:38:54;3.85;;;1.15;;
22543;SDS011;11438;52.044;8.716;2024-02-23T11:41:22;2.35;;;0.98;;
22543;SDS011;11438;52.044;8.716;2024-02-23T11:43:51;3.75;;;1.05;;
22543;SDS011;11438;52.044;8.716;2024-02-23T11:46:18;2.92;;;0.80;;
22543;SDS011;11438;52.044;8.716;2024-02-23T11:48:44;4.07;;;0.90;;
22543;SDS011;11438;52.044;8.716;2024-02-23T11:51:11;4.53;;;0.85;;
22543;SDS011;11438;52.044;8.716;2024-02-23T11:53:40;2.40;;;0.65;;
22543;SDS011;11438;52.044;8.716;2024-02-23T11:56:06;2.80;;;0.60;;
22543;SDS011;11438;52.044;8.716;2024-02-23T11:58:32;2.45;;;0.80;;
22543;SDS011;11438;52.044;8.716;2024-02-23T12:00:59;1.88;;;0.65;;
22543;SDS011;11438;52.044;8.716;2024-02-23T12:03:27;2.17;;;0.63;;
22543;SDS011;11438;52.044;8.716;2024-02-23T12:05:57;2.10;;;0.50;;
22543;SDS011;11438;52.044;8.716;2024-02-23T12:08:23;2.28;;;0.80;;
22543;SDS011;11438;52.044;8.716;2024-02-23T12:10:56;0.93;;;0.50;;
22543;SDS011;11438;52.044;8.716;2024-02-23T12:13:22;5.07;;;0.80;;
22543;SDS011;11438;52.044;8.716;2024-02-23T12:15:48;4.32;;;0.70;;
22543;SDS011;11438;52.044;8.716;2024-02-23T12:18:17;2.13;;;0.63;;
22543;SDS011;11438;52.044;8.716;2024-02-23T12:20:47;1.83;;;0.68;;
22543;SDS011;11438;52.044;8.716;2024-02-23T12:23:12;1.75;;;0.52;;
22543;SDS011;11438;52.044;8.716;2024-02-23T12:25:38;3.70;;;0.63;;
22543;SDS011;11438;52.044;8.716;2024-02-23T12:28:03;1.20;;;0.40;;
22543;SDS011;11438;52.044;8.716;2024-02-23T12:30:29;2.38;;;0.55;;
22543;SDS011;11438;52.044;8.716;2024-02-23T12:33:03;1.70;;;0.60;;
22543;SDS011;11438;52.044;8.716;2024-02-23T12:35:32;3.72;;;0.82;;
22543;SDS011;11438;52.044;8.716;2024-02-23T12:38:00;2.47;;;0.35;;
22543;SDS011;11438;52.044;8.716;2024-02-23T12:40:25;2.72;;;0.60;;
22543;SDS011;11438;52.044;8.716;2024-02-23T12:42:51;2.50;;;0.60;;
22543;SDS011;11438;52.044;8.716;2024-02-23T12:45:17;2.70;;;0.40;;
22543;SDS011;11438;52.044;8.716;2024-02-23T12:47:42;2.80;;;0.40;;
22543;SDS011;11438;52.044;8.716;2024-02-23T12:50:08;2.20;;;0.40;;
22543;SDS011;11438;52.044;8.716;2024-02-23T12:52:34;2.63;;;0.50;;
22543;SDS011;11438;52.044;8.716;2024-02-23T12:54:59;1.77;;;0.50;;
22543;SDS011;11438;52.044;8.716;2024-02-23T12:57:25;1.38;;;0.43;;
22543;SDS011;11438;52.044;8.716;2024-02-23T12:59:50;2.05;;;0.60;;
22543;SDS011;11438;52.044;8.716;2024-02-23T13:02:16;1.60;;;0.55;;
22543;SDS011;11438;52.044;8.716;2024-02-23T13:04:42;1.35;;;0.30;;
22543;SDS011;11438;52.044;8.716;2024-02-23T13:07:13;1.17;;;0.40;;
22543;SDS011;11438;52.044;8.716;2024-02-23T13:09:39;1.80;;;0.40;;
22543;SDS011;11438;52.044;8.716;2024-02-23T13:12:04;1.92;;;0.60;;
22543;SDS011;11438;52.044;8.716;2024-02-23T13:14:30;2.63;;;0.52;;
22543;SDS011;11438;52.044;8.716;2024-02-23T13:16:55;3.42;;;0.50;;
22543;SDS011;11438;52.044;8.716;2024-02-23T13:19:21;3.92;;;0.60;;
22543;SDS011;11438;52.044;8.716;2024-02-23T13:21:46;2.47;;;0.55;;
22543;SDS011;11438;52.044;8.716;2024-02-23T13:24:12;2.22;;;0.40;;
22543;SDS011;11438;52.044;8.716;2024-02-23T13:26:37;3.17;;;0.50;;
22543;SDS011;11438;52.044;8.716;2024-02-23T13:29:03;1.45;;;0.45;;
22543;SDS011;11438;52.044;8.716;2024-02-23T13:31:29;1.23;;;0.70;;
22543;SDS011;11438;52.044;8.716;2024-02-23T13:33:54;1.20;;;0.30;;
22543;SDS011;11438;52.044;8.716;2024-02-23T13:36:20;1.48;;;0.50;;
22543;SDS011;11438;52.044;8.716;2024-02-23T13:38:45;3.67;;;0.50;;
22543;SDS011;11438;52.044;8.716;2024-02-23T13:41:11;1.58;;;0.40;;
22543;SDS011;11438;52.044;8.716;2024-02-23T13:43:36;2.00;;;0.47;;
22543;SDS011;11438;52.044;8.716;2024-02-23T13:46:03;2.33;;;0.63;;
22543;SDS011;11438;52.044;8.716;2024-02-23T13:48:29;3.15;;;0.60;;
22543;SDS011;11438;52.044;8.716;2024-02-23T13:50:54;1.92;;;0.50;;
22543;SDS011;11438;52.044;8.716;2024-02-23T13:53:20;0.95;;;0.38;;
22543;SDS011;11438;52.044;8.716;2024-02-23T13:55:45;0.77;;;0.30;;
22543;SDS011;11438;52.044;8.716;2024-02-23T13:58:11;1.83;;;0.60;;
22543;SDS011;11438;52.044;8.716;2024-02-23T14:00:37;1.73;;;0.60;;
22543;SDS011;11438;52.044;8.716;2024-02-23T14:03:03;2.40;;;1.00;;
22543;SDS011;11438;52.044;8.716;2024-02-23T14:05:28;2.25;;;0.50;;
22543;SDS011;11438;52.044;8.716;2024-02-23T14:07:54;0.70;;;0.40;;
22543;SDS011;11438;52.044;8.716;2024-02-23T14:10:20;0.88;;;0.50;;
22543;SDS011;11438;52.044;8.716;2024-02-23T14:12:45;1.60;;;0.50;;
22543;SDS011;11438;52.044;8.716;2024-02-23T14:15:11;1.67;;;0.40;;
22543;SDS011;11438;52.044;8.716;2024-02-23T14:17:37;1.38;;;0.43;;
22543;SDS011;11438;52.044;8.716;2024-02-23T14:20:03;1.67;;;0.45;;
22543;SDS011;11438;52.044;8.716;2024-02-23T14:22:29;0.95;;;0.40;;
22543;SDS011;11438;52.044;8.716;2024-02-23T14:24:56;2.55;;;0.50;;
22543;SDS011;11438;52.044;8.716;2024-02-23T14:27:21;1.27;;;0.40;;
22543;SDS011;11438;52.044;8.716;2024-02-23T14:29:47;1.25;;;0.60;;
22543;SDS011;11438;52.044;8.716;2024-02-23T14:32:15;1.45;;;0.70;;
22543;SDS011;11438;52.044;8.716;2024-02-23T14:34:44;1.85;;;0.40;;
22543;SDS011;11438;52.044;8.716;2024-02-23T14:37:10;1.77;;;0.50;;
22543;SDS011;11438;52.044;8.716;2024-02-23T14:39:35;1.85;;;0.50;;
22543;SDS011;11438;52.044;8.716;2024-02-23T14:42:01;2.13;;;0.50;;